Time;durP1;ratioP1;P1;durP2;ratioP2;P2;SDS_P1;SDS_P2;PMS_P1;PMS_P2;Temp;Humidity;BMP_temperature;BMP_pressure;BME280_temperature;BME280_humidity;BME280_pressure;Samples;Min_cycle;Max_cycle;Signal;HPM_P1;HPM_P2
2022/03/13 00:03:34;;;;;;;5.50;3.20;;;;;;;;;;4956660;28;21188;-88
2022/03/13 00:07:21;;;;;;;4.53;3.37;;;;;;;;;;4954249;28;20651;-88
2022/03/13 00:11:18;;;;;;;5.80;3.10;;;;;;;;;;4943653;29;20544;-88
2022/03/13 00:24:37;;;;;;;4.40;2.97;;;;;;;;;;4951260;29;20619;-88
2022/03/13 00:32:50;;;;;;;6.97;3.00;;;;;;;;;;4963761;28;20548;-85
2022/03/13 00:36:03;;;;;;;4.93;3.33;;;;;;;;;;4956083;28;20654;-84
2022/03/13 00:39:10;;;;;;;5.90;3.30;;;;;;;;;;4956683;29;20544;-84
2022/03/13 00:42:32;;;;;;;5.30;2.90;;;;;;;;;;4956359;29;20603;-84
2022/03/13 00:45:37;;;;;;;6.93;3.40;;;;;;;;;;4956689;29;20991;-84
2022/03/13 00:48:42;;;;;;;6.20;3.27;;;;;;;;;;4945456;29;21176;-84
2022/03/13 00:51:46;;;;;;;4.60;3.23;;;;;;;;;;4946087;29;20974;-84
2022/03/13 00:54:50;;;;;;;5.77;3.33;;;;;;;;;;4946002;29;20662;-87
2022/03/13 00:58:02;;;;;;;5.23;3.00;;;;;;;;;;4953486;29;20606;-86
2022/03/13 01:01:12;;;;;;;5.03;3.30;;;;;;;;;;4953935;29;21086;-87
2022/03/13 01:04:16;;;;;;;4.70;3.50;;;;;;;;;;4953493;28;20658;-86
2022/03/13 01:07:21;;;;;;;4.37;3.37;;;;;;;;;;4953736;29;21078;-87
2022/03/13 01:26:52;;;;;;;5.50;2.90;;;;;;;;;;4954720;28;20643;-86
2022/03/13 01:51:02;;;;;;;8.93;3.90;;;;;;;;;;4822108;29;21148;-86
2022/03/13 01:54:41;;;;;;;4.07;3.03;;;;;;;;;;4820496;29;20641;-86
2022/03/13 01:58:12;;;;;;;5.80;3.73;;;;;;;;;;4820367;29;20743;-86
2022/03/13 02:02:30;;;;;;;8.10;3.37;;;;;;;;;;4821385;29;20617;-87
2022/03/13 02:05:37;;;;;;;5.03;3.33;;;;;;;;;;4809886;29;20649;-86
2022/03/13 02:08:50;;;;;;;4.07;3.37;;;;;;;;;;4903195;29;20561;-87
2022/03/13 02:16:43;;;;;;;4.30;3.03;;;;;;;;;;4933525;29;20631;-87
2022/03/13 02:40:27;;;;;;;7.87;3.67;;;;;;;;;;4913384;29;20609;-87
2022/03/13 02:43:41;;;;;;;6.37;4.00;;;;;;;;;;4900946;29;20597;-87
2022/03/13 02:51:57;;;;;;;6.40;3.00;;;;;;;;;;4974433;28;20586;-87
2022/03/13 02:55:06;;;;;;;5.23;3.40;;;;;;;;;;4949238;29;21240;-87
2022/03/13 03:03:48;;;;;;;7.00;3.80;;;;;;;;;;4953423;29;21157;-87
2022/03/13 03:11:25;;;;;;;6.20;3.63;;;;;;;;;;4935382;29;21232;-87
2022/03/13 03:14:37;;;;;;;5.87;3.63;;;;;;;;;;4944557;29;20616;-87
2022/03/13 03:23:52;;;;;;;6.63;3.60;;;;;;;;;;4931790;29;20952;-87
2022/03/13 03:43:29;;;;;;;6.57;4.00;;;;;;;;;;4953771;29;20628;-87
2022/03/13 03:48:32;;;;;;;5.83;3.60;;;;;;;;;;4926907;29;20593;-87
2022/03/13 04:07:50;;;;;;;4.30;3.27;;;;;;;;;;4913680;29;20613;-84
2022/03/13 04:11:33;;;;;;;4.57;3.70;;;;;;;;;;4857882;29;20612;-84
2022/03/13 04:20:50;;;;;;;4.97;3.13;;;;;;;;;;4896562;29;20559;-84
2022/03/13 04:24:20;;;;;;;7.03;3.77;;;;;;;;;;4931251;29;20611;-84
2022/03/13 04:28:33;;;;;;;7.33;3.40;;;;;;;;;;4961437;28;20631;-84
2022/03/13 04:33:27;;;;;;;6.53;3.63;;;;;;;;;;4961652;28;20587;-84
2022/03/13 04:37:45;;;;;;;5.87;3.90;;;;;;;;;;4947020;29;20932;-84
2022/03/13 05:26:21;;;;;;;6.63;3.67;;;;;;;;;;4994468;28;20665;-87
2022/03/13 05:31:29;;;;;;;6.73;3.97;;;;;;;;;;4988347;28;20609;-88
2022/03/13 05:35:49;;;;;;;6.63;3.80;;;;;;;;;;4993987;28;20624;-88
2022/03/13 05:38:55;;;;;;;6.23;4.07;;;;;;;;;;4929096;29;20595;-88
2022/03/13 05:42:09;;;;;;;6.50;4.17;;;;;;;;;;4955107;28;20619;-88
2022/03/13 05:46:08;;;;;;;5.80;3.80;;;;;;;;;;4952883;28;20663;-88
2022/03/13 05:50:12;;;;;;;6.77;3.63;;;;;;;;;;4953954;29;20599;-88
2022/03/13 05:54:10;;;;;;;7.40;4.30;;;;;;;;;;4953116;29;20544;-88
2022/03/13 05:58:14;;;;;;;6.73;3.67;;;;;;;;;;4961634;28;21177;-84
2022/03/13 06:05:22;;;;;;;5.67;3.90;;;;;;;;;;4952840;29;20659;-86
2022/03/13 06:09:38;;;;;;;6.83;4.27;;;;;;;;;;4941666;29;20946;-86
2022/03/13 06:18:43;;;;;;;6.73;4.57;;;;;;;;;;4952696;29;21169;-85
2022/03/13 06:21:49;;;;;;;8.70;4.40;;;;;;;;;;4953474;29;20529;-90
2022/03/13 06:52:18;;;;;;;17.30;5.70;;;;;;;;;;5031702;28;20588;-85
2022/03/13 06:57:20;;;;;;;8.73;5.23;;;;;;;;;;4954738;28;20654;-83
2022/03/13 07:07:31;;;;;;;5.83;3.87;;;;;;;;;;5026723;28;20651;-84
2022/03/13 07:10:54;;;;;;;7.47;4.47;;;;;;;;;;4965775;28;20600;-83
2022/03/13 07:14:00;;;;;;;13.73;4.33;;;;;;;;;;4986763;28;20987;-83
2022/03/13 07:35:23;;;;;;;7.70;4.20;;;;;;;;;;4929192;29;20972;-85
2022/03/13 07:43:13;;;;;;;7.53;4.30;;;;;;;;;;4953354;29;20180;-83
2022/03/13 07:46:18;;;;;;;7.03;4.67;;;;;;;;;;4945572;29;20235;-84
2022/03/13 07:49:23;;;;;;;6.13;4.10;;;;;;;;;;4946226;29;20183;-84
2022/03/13 07:52:27;;;;;;;6.37;4.07;;;;;;;;;;4957025;29;20180;-84
2022/03/13 07:55:31;;;;;;;5.93;4.27;;;;;;;;;;4945879;29;20567;-84
2022/03/13 07:58:35;;;;;;;6.63;4.60;;;;;;;;;;4945836;28;20187;-84
2022/03/13 08:01:40;;;;;;;9.93;4.20;;;;;;;;;;4962992;28;20195;-84
2022/03/13 08:04:44;;;;;;;6.80;4.80;;;;;;;;;;5030340;28;20580;-84
2022/03/13 08:07:49;;;;;;;5.63;4.10;;;;;;;;;;4941239;28;20650;-84
2022/03/13 08:10:53;;;;;;;6.30;4.40;;;;;;;;;;4945518;29;20191;-84
2022/03/13 08:13:57;;;;;;;8.67;4.47;;;;;;;;;;4946554;29;20184;-84
2022/03/13 08:17:03;;;;;;;7.10;4.60;;;;;;;;;;4967352;28;20515;-84
2022/03/13 08:20:07;;;;;;;8.27;4.40;;;;;;;;;;4955956;29;20526;-84
2022/03/13 08:23:11;;;;;;;6.23;4.47;;;;;;;;;;4944499;29;20188;-84
2022/03/13 08:26:15;;;;;;;6.33;3.93;;;;;;;;;;4945121;29;20256;-84
2022/03/13 08:29:20;;;;;;;6.63;4.70;;;;;;;;;;4955157;29;20199;-84
2022/03/13 08:32:24;;;;;;;7.37;4.37;;;;;;;;;;4945753;29;20199;-84
2022/03/13 08:35:29;;;;;;;6.53;4.63;;;;;;;;;;4944559;29;20215;-84
2022/03/13 08:38:33;;;;;;;8.07;4.93;;;;;;;;;;5002111;28;20183;-84
2022/03/13 08:41:38;;;;;;;7.53;4.87;;;;;;;;;;4933414;29;20627;-84
2022/03/13 08:44:44;;;;;;;6.10;4.33;;;;;;;;;;4945696;28;20227;-84
2022/03/13 08:47:48;;;;;;;8.90;4.93;;;;;;;;;;4927311;29;20528;-85
2022/03/13 08:50:53;;;;;;;8.77;4.87;;;;;;;;;;4940598;29;20199;-84
2022/03/13 08:53:57;;;;;;;6.63;4.67;;;;;;;;;;4917091;29;20180;-84
2022/03/13 08:57:02;;;;;;;8.33;5.43;;;;;;;;;;4951460;29;20199;-84
2022/03/13 09:00:08;;;;;;;6.27;4.30;;;;;;;;;;4943712;29;20195;-84
2022/03/13 09:03:12;;;;;;;12.87;5.80;;;;;;;;;;4955140;29;20578;-84
2022/03/13 09:06:16;;;;;;;6.23;4.50;;;;;;;;;;4954446;29;20232;-84
2022/03/13 09:09:20;;;;;;;8.60;5.37;;;;;;;;;;4944957;29;20180;-84
2022/03/13 09:12:24;;;;;;;6.77;5.20;;;;;;;;;;4944389;28;20555;-84
2022/03/13 09:15:29;;;;;;;9.47;5.47;;;;;;;;;;4955534;29;20215;-84
2022/03/13 09:18:34;;;;;;;9.60;5.60;;;;;;;;;;4943582;29;20195;-85
2022/03/13 09:21:38;;;;;;;6.97;5.10;;;;;;;;;;4944704;29;20180;-84
2022/03/13 09:24:42;;;;;;;8.10;5.20;;;;;;;;;;4943933;29;20188;-84
2022/03/13 09:27:52;;;;;;;9.13;5.60;;;;;;;;;;4944564;29;20176;-85
2022/03/13 09:30:59;;;;;;;15.83;5.73;;;;;;;;;;4944464;29;20183;-85
2022/03/13 09:34:03;;;;;;;7.50;5.40;;;;;;;;;;4943118;29;20206;-85
2022/03/13 09:37:07;;;;;;;6.20;4.93;;;;;;;;;;4944006;29;20172;-85
2022/03/13 09:40:15;;;;;;;8.03;5.37;;;;;;;;;;4943470;29;20184;-85
2022/03/13 09:43:19;;;;;;;8.13;5.77;;;;;;;;;;4944161;29;20179;-84
2022/03/13 09:46:23;;;;;;;8.37;6.13;;;;;;;;;;4955640;29;20227;-85
2022/03/13 09:49:27;;;;;;;8.47;6.20;;;;;;;;;;4943804;29;20184;-85
2022/03/13 09:52:33;;;;;;;7.63;5.73;;;;;;;;;;4955656;29;20187;-85
2022/03/13 09:55:39;;;;;;;10.07;5.63;;;;;;;;;;4955581;29;20215;-85
2022/03/13 09:58:45;;;;;;;7.40;5.53;;;;;;;;;;4942817;29;20191;-85
2022/03/13 10:01:49;;;;;;;7.30;5.67;;;;;;;;;;4944583;29;20184;-85
2022/03/13 10:05:06;;;;;;;;;;;;;;;;;;;;;
2022/03/13 10:08:20;;;;;;;7.60;6.07;;;;;;;;;;4965359;28;20184;-85
2022/03/13 10:11:34;;;;;;;8.70;5.70;;;;;;;;;;5000562;28;20203;-85
2022/03/13 10:14:57;;;;;;;13.03;6.23;;;;;;;;;;4943001;29;20188;-85
2022/03/13 10:18:14;;;;;;;7.57;6.17;;;;;;;;;;4942392;29;20203;-85
2022/03/13 10:21:18;;;;;;;7.57;6.10;;;;;;;;;;4941921;29;20192;-85
2022/03/13 10:24:22;;;;;;;7.67;6.07;;;;;;;;;;4957258;28;20188;-85
2022/03/13 10:27:30;;;;;;;9.23;6.50;;;;;;;;;;4940792;29;20537;-85
2022/03/13 10:30:34;;;;;;;7.73;5.97;;;;;;;;;;4943281;28;20207;-85
2022/03/13 10:33:44;;;;;;;8.10;6.47;;;;;;;;;;4943652;29;20179;-85
2022/03/13 10:36:48;;;;;;;9.13;6.93;;;;;;;;;;4931390;29;20223;-85
2022/03/13 10:40:08;;;;;;;9.00;6.63;;;;;;;;;;4943443;29;20200;-85
2022/03/13 10:43:19;;;;;;;8.67;6.87;;;;;;;;;;4952984;28;20200;-85
2022/03/13 10:46:26;;;;;;;8.70;6.03;;;;;;;;;;4953390;29;20215;-85
2022/03/13 10:49:36;;;;;;;8.67;6.50;;;;;;;;;;4954458;29;20200;-85
2022/03/13 10:52:45;;;;;;;8.20;6.70;;;;;;;;;;4940855;29;20650;-85
2022/03/13 10:56:20;;;;;;;8.80;6.17;;;;;;;;;;4947967;28;20223;-85
2022/03/13 10:59:24;;;;;;;8.87;7.00;;;;;;;;;;4934044;29;20187;-85
2022/03/13 11:02:30;;;;;;;11.00;7.50;;;;;;;;;;4937267;29;20568;-85
2022/03/13 11:05:35;;;;;;;9.67;7.00;;;;;;;;;;4940950;29;20230;-85
2022/03/13 11:08:41;;;;;;;10.13;7.20;;;;;;;;;;4940972;29;20191;-85
2022/03/13 11:11:46;;;;;;;8.93;6.87;;;;;;;;;;4927934;28;20578;-85
2022/03/13 11:14:55;;;;;;;10.17;7.37;;;;;;;;;;4951930;29;20224;-85
2022/03/13 11:17:59;;;;;;;9.60;7.00;;;;;;;;;;4941059;29;20551;-85
2022/03/13 11:21:06;;;;;;;9.97;7.07;;;;;;;;;;4933206;29;20650;-84
2022/03/13 11:24:11;;;;;;;9.23;6.73;;;;;;;;;;4955544;29;20191;-85
2022/03/13 11:27:16;;;;;;;8.53;6.97;;;;;;;;;;4976340;28;20523;-85
2022/03/13 11:30:32;;;;;;;8.43;6.47;;;;;;;;;;4937133;29;20196;-85
2022/03/13 11:33:44;;;;;;;9.70;7.37;;;;;;;;;;4932078;29;20195;-85
2022/03/13 11:36:51;;;;;;;9.47;6.87;;;;;;;;;;4949116;28;20231;-84
2022/03/13 11:40:00;;;;;;;8.63;6.87;;;;;;;;;;5011679;28;20187;-85
2022/03/13 11:43:15;;;;;;;9.33;7.03;;;;;;;;;;4956287;29;20539;-84
2022/03/13 11:46:37;;;;;;;10.03;6.87;;;;;;;;;;4956295;28;20219;-84
2022/03/13 11:49:41;;;;;;;9.80;7.07;;;;;;;;;;4955979;29;20207;-84
2022/03/13 11:52:48;;;;;;;8.27;6.60;;;;;;;;;;4957438;29;20199;-84
2022/03/13 11:56:02;;;;;;;8.13;5.90;;;;;;;;;;4949991;28;20223;-84
2022/03/13 11:59:18;;;;;;;9.87;6.53;;;;;;;;;;4956255;29;20195;-84
2022/03/13 12:02:41;;;;;;;10.57;7.27;;;;;;;;;;4945310;29;20192;-84
2022/03/13 12:05:49;;;;;;;9.10;6.73;;;;;;;;;;4955939;29;20607;-84
2022/03/13 12:09:12;;;;;;;8.30;6.27;;;;;;;;;;4956255;29;20196;-84
2022/03/13 12:12:20;;;;;;;9.87;7.00;;;;;;;;;;4945267;29;20207;-84
2022/03/13 12:15:24;;;;;;;10.63;7.23;;;;;;;;;;4936602;29;20224;-84
2022/03/13 12:18:29;;;;;;;10.93;7.00;;;;;;;;;;4925553;29;20675;-84
2022/03/13 12:21:34;;;;;;;9.33;6.63;;;;;;;;;;4956698;29;20216;-84
2022/03/13 12:24:39;;;;;;;9.90;7.00;;;;;;;;;;4944879;28;20196;-84
2022/03/13 12:27:46;;;;;;;11.67;7.10;;;;;;;;;;4956319;29;20195;-84
2022/03/13 12:30:59;;;;;;;8.97;6.60;;;;;;;;;;4962020;28;20210;-84
2022/03/13 12:34:04;;;;;;;8.37;6.63;;;;;;;;;;4944676;29;20200;-83
2022/03/13 12:37:09;;;;;;;10.03;7.23;;;;;;;;;;4944360;29;20211;-84
2022/03/13 12:40:14;;;;;;;9.93;6.90;;;;;;;;;;4930287;29;20188;-83
2022/03/13 12:43:21;;;;;;;9.60;6.70;;;;;;;;;;4942080;29;20192;-84
2022/03/13 12:46:30;;;;;;;9.33;6.70;;;;;;;;;;4945684;29;20219;-84
2022/03/13 12:49:36;;;;;;;9.33;6.80;;;;;;;;;;4935087;28;20195;-83
2022/03/13 12:52:42;;;;;;;8.77;6.80;;;;;;;;;;4956903;29;20547;-84
2022/03/13 12:55:53;;;;;;;8.77;6.80;;;;;;;;;;4959949;22;20712;-85
2022/03/13 12:58:58;;;;;;;9.43;6.93;;;;;;;;;;4951092;28;20199;-88
2022/03/13 13:02:18;;;;;;;8.53;6.53;;;;;;;;;;4961744;28;20199;-87
2022/03/13 13:05:23;;;;;;;9.97;6.27;;;;;;;;;;5030415;28;20219;-88
2022/03/13 13:08:36;;;;;;;9.03;6.80;;;;;;;;;;5051660;28;20184;-86
2022/03/13 13:11:40;;;;;;;11.73;7.20;;;;;;;;;;5052152;28;20180;-86
2022/03/13 13:14:45;;;;;;;17.87;7.00;;;;;;;;;;5063159;28;20198;-86
2022/03/13 13:17:52;;;;;;;9.50;6.80;;;;;;;;;;5051555;28;20231;-86
2022/03/13 13:21:09;;;;;;;9.30;6.33;;;;;;;;;;5063481;28;20188;-86
2022/03/13 13:24:27;;;;;;;9.20;6.90;;;;;;;;;;5051564;28;20179;-85
2022/03/13 13:27:33;;;;;;;8.80;6.23;;;;;;;;;;5051925;28;20179;-86
2022/03/13 13:30:41;;;;;;;9.77;7.27;;;;;;;;;;5051887;28;20184;-85
2022/03/13 13:33:49;;;;;;;10.87;6.80;;;;;;;;;;5040598;28;20650;-86
2022/03/13 13:37:07;;;;;;;8.77;6.50;;;;;;;;;;5062588;28;20590;-86
2022/03/13 13:40:12;;;;;;;11.30;6.90;;;;;;;;;;5063224;28;20180;-87
2022/03/13 13:43:34;;;;;;;9.67;6.67;;;;;;;;;;5039083;28;20202;-86
2022/03/13 13:46:38;;;;;;;9.73;6.30;;;;;;;;;;5051140;28;20212;-86
2022/03/13 13:49:42;;;;;;;10.63;7.60;;;;;;;;;;5051000;28;20199;-86
2022/03/13 13:52:59;;;;;;;11.60;6.90;;;;;;;;;;5051016;28;20198;-86
2022/03/13 13:56:10;;;;;;;8.40;6.70;;;;;;;;;;5050948;28;20228;-86
2022/03/13 13:59:28;;;;;;;8.27;6.43;;;;;;;;;;5051225;28;20172;-86
2022/03/13 14:02:32;;;;;;;11.77;6.97;;;;;;;;;;5040106;28;20175;-85
2022/03/13 14:05:41;;;;;;;9.93;6.60;;;;;;;;;;5075171;28;20219;-86
2022/03/13 14:08:47;;;;;;;12.40;6.80;;;;;;;;;;5040824;28;20175;-86
2022/03/13 14:11:51;;;;;;;11.27;7.20;;;;;;;;;;5052447;28;20182;-86
2022/03/13 14:14:55;;;;;;;10.00;6.80;;;;;;;;;;5051306;28;20194;-86
2022/03/13 14:18:01;;;;;;;11.27;7.07;;;;;;;;;;5050894;28;20220;-85
2022/03/13 14:21:05;;;;;;;10.30;6.87;;;;;;;;;;5050606;28;20186;-85
2022/03/13 14:24:11;;;;;;;9.83;7.10;;;;;;;;;;5050623;28;20191;-85
2022/03/13 14:27:14;;;;;;;9.93;6.50;;;;;;;;;;5050360;28;20191;-85
2022/03/13 14:30:19;;;;;;;8.17;5.97;;;;;;;;;;5050511;28;20195;-85
2022/03/13 14:33:23;;;;;;;10.13;6.70;;;;;;;;;;5050160;28;20199;-86
2022/03/13 14:36:27;;;;;;;8.03;6.70;;;;;;;;;;5061722;28;20569;-85
2022/03/13 14:39:32;;;;;;;10.00;6.20;;;;;;;;;;5039006;28;20187;-85
2022/03/13 14:42:36;;;;;;;7.50;6.20;;;;;;;;;;5050123;28;20180;-85
2022/03/13 14:45:40;;;;;;;8.77;6.20;;;;;;;;;;5038922;28;20219;-86
2022/03/13 14:48:45;;;;;;;8.50;6.27;;;;;;;;;;5050391;28;20179;-85
2022/03/13 14:51:49;;;;;;;10.00;6.20;;;;;;;;;;5050446;28;20183;-85
2022/03/13 14:54:53;;;;;;;10.63;6.60;;;;;;;;;;5038344;28;20197;-85
2022/03/13 14:57:57;;;;;;;8.37;6.33;;;;;;;;;;5038858;28;20215;-86
2022/03/13 15:01:05;;;;;;;10.03;7.07;;;;;;;;;;5038949;28;20175;-85
2022/03/13 15:04:10;;;;;;;13.60;7.17;;;;;;;;;;5049889;28;20183;-86
2022/03/13 15:07:14;;;;;;;10.67;7.03;;;;;;;;;;5061791;28;20178;-85
2022/03/13 15:10:18;;;;;;;11.30;7.07;;;;;;;;;;5038932;28;20179;-86
2022/03/13 15:13:22;;;;;;;9.63;6.97;;;;;;;;;;5038525;28;20175;-86
2022/03/13 15:16:27;;;;;;;10.77;7.20;;;;;;;;;;5045341;28;20215;-87
2022/03/13 15:19:31;;;;;;;9.53;6.53;;;;;;;;;;5054127;28;20183;-87
2022/03/13 15:22:35;;;;;;;11.00;6.90;;;;;;;;;;5023935;28;20535;-85
2022/03/13 15:25:39;;;;;;;9.80;7.27;;;;;;;;;;5056742;28;20616;-86
2022/03/13 15:28:43;;;;;;;11.57;8.23;;;;;;;;;;5049865;28;20175;-85
2022/03/13 15:31:47;;;;;;;11.17;7.87;;;;;;;;;;5038120;28;20187;-86
2022/03/13 15:34:51;;;;;;;10.20;7.50;;;;;;;;;;5038772;28;20179;-86
2022/03/13 15:37:55;;;;;;;10.17;7.77;;;;;;;;;;5037347;28;20573;-86
2022/03/13 15:41:00;;;;;;;10.60;7.03;;;;;;;;;;5048652;28;20571;-87
2022/03/13 15:44:04;;;;;;;11.77;7.57;;;;;;;;;;5038234;28;20184;-87
2022/03/13 15:47:09;;;;;;;10.97;7.60;;;;;;;;;;5049573;28;20223;-87
2022/03/13 15:50:13;;;;;;;11.90;8.00;;;;;;;;;;5028821;28;20191;-88
2022/03/13 15:53:17;;;;;;;13.43;7.50;;;;;;;;;;5052791;28;20185;-87
2022/03/13 15:56:22;;;;;;;12.87;7.63;;;;;;;;;;5029195;28;20590;-88
2022/03/13 15:59:26;;;;;;;10.10;7.40;;;;;;;;;;5041304;28;20188;-88
2022/03/13 16:02:31;;;;;;;12.47;7.37;;;;;;;;;;5040613;28;20196;-88
2022/03/13 16:05:40;;;;;;;11.87;7.87;;;;;;;;;;5041320;28;20286;-88
2022/03/13 16:08:44;;;;;;;16.60;8.30;;;;;;;;;;5033503;28;20669;-88
2022/03/13 16:11:48;;;;;;;12.63;7.67;;;;;;;;;;5044598;28;20192;-87
2022/03/13 16:14:57;;;;;;;12.37;7.13;;;;;;;;;;5044496;28;20195;-88
2022/03/13 16:18:02;;;;;;;12.90;8.27;;;;;;;;;;5044083;28;20715;-87
2022/03/13 16:21:06;;;;;;;12.47;7.63;;;;;;;;;;5044318;28;20181;-87
2022/03/13 16:24:10;;;;;;;9.83;7.77;;;;;;;;;;5033063;28;20534;-88
2022/03/13 16:27:14;;;;;;;13.30;7.40;;;;;;;;;;5032831;28;20184;-87
2022/03/13 16:30:19;;;;;;;12.67;7.40;;;;;;;;;;5044279;28;20190;-87
2022/03/13 16:33:23;;;;;;;12.23;7.20;;;;;;;;;;5032891;28;20200;-88
2022/03/13 16:36:27;;;;;;;11.53;7.47;;;;;;;;;;5044279;28;20225;-87
2022/03/13 16:39:32;;;;;;;11.73;8.07;;;;;;;;;;5044140;28;20180;-88
2022/03/13 16:42:36;;;;;;;9.37;6.97;;;;;;;;;;5044008;28;20172;-87
2022/03/13 16:45:40;;;;;;;11.43;7.30;;;;;;;;;;5032735;28;20208;-87
2022/03/13 16:48:44;;;;;;;12.47;6.80;;;;;;;;;;5043726;28;20181;-87
2022/03/13 16:51:49;;;;;;;10.90;7.00;;;;;;;;;;5032563;28;20215;-87
2022/03/13 16:54:53;;;;;;;12.20;7.50;;;;;;;;;;5032346;28;20192;-88
2022/03/13 16:57:57;;;;;;;9.67;6.70;;;;;;;;;;5032349;28;20215;-87
2022/03/13 17:01:01;;;;;;;8.77;6.07;;;;;;;;;;5032298;28;20184;-87
2022/03/13 17:04:06;;;;;;;13.33;6.77;;;;;;;;;;5043426;28;20176;-87
2022/03/13 17:07:10;;;;;;;8.60;6.60;;;;;;;;;;5032242;28;20187;-87
2022/03/13 17:10:14;;;;;;;8.17;5.90;;;;;;;;;;5043618;28;20515;-88
2022/03/13 17:13:19;;;;;;;9.27;6.00;;;;;;;;;;5032128;28;20180;-87
2022/03/13 17:16:23;;;;;;;7.80;5.67;;;;;;;;;;5043209;28;20215;-87
2022/03/13 17:19:27;;;;;;;8.30;5.87;;;;;;;;;;5043114;28;20204;-88
2022/03/13 17:22:31;;;;;;;8.23;5.57;;;;;;;;;;5043342;28;20188;-87
2022/03/13 17:25:36;;;;;;;9.57;5.77;;;;;;;;;;5043244;28;20215;-87
2022/03/13 17:28:40;;;;;;;8.63;5.63;;;;;;;;;;5043074;28;20196;-87
2022/03/13 17:31:45;;;;;;;8.67;5.67;;;;;;;;;;5043344;28;20631;-88
2022/03/13 17:34:49;;;;;;;8.97;6.63;;;;;;;;;;5042803;28;20185;-87
2022/03/13 17:37:53;;;;;;;8.40;6.00;;;;;;;;;;5043017;28;20204;-88
2022/03/13 17:40:57;;;;;;;11.17;7.20;;;;;;;;;;5031606;28;20199;-88
2022/03/13 17:44:01;;;;;;;9.73;6.80;;;;;;;;;;5042783;28;20195;-87
2022/03/13 17:47:06;;;;;;;8.37;5.53;;;;;;;;;;5054191;28;20215;-88
2022/03/13 17:50:11;;;;;;;6.73;5.37;;;;;;;;;;5042523;28;20196;-87
2022/03/13 17:53:15;;;;;;;13.87;7.80;;;;;;;;;;5031107;28;20196;-88
2022/03/13 17:56:19;;;;;;;12.70;8.33;;;;;;;;;;5042102;28;20227;-88
2022/03/13 17:59:24;;;;;;;34.47;9.87;;;;;;;;;;5053931;28;20220;-88
2022/03/13 18:02:28;;;;;;;8.87;6.23;;;;;;;;;;5053554;28;20180;-88
2022/03/13 18:05:33;;;;;;;7.50;5.20;;;;;;;;;;5053518;28;20220;-87
2022/03/13 18:08:37;;;;;;;12.27;6.90;;;;;;;;;;5042376;28;20180;-88
2022/03/13 18:11:42;;;;;;;8.80;5.70;;;;;;;;;;5030852;28;20192;-87
2022/03/13 18:14:46;;;;;;;13.47;6.90;;;;;;;;;;5053902;28;20181;-87
2022/03/13 18:17:50;;;;;;;7.20;5.37;;;;;;;;;;5042036;28;20180;-88
2022/03/13 18:20:54;;;;;;;11.47;5.43;;;;;;;;;;5042279;28;20184;-88
2022/03/13 18:23:58;;;;;;;7.43;5.10;;;;;;;;;;5042299;28;20523;-88
2022/03/13 18:27:03;;;;;;;9.33;5.93;;;;;;;;;;5053358;28;20223;-88
2022/03/13 18:30:07;;;;;;;9.53;5.37;;;;;;;;;;5041795;28;20180;-88
2022/03/13 18:33:12;;;;;;;7.33;4.80;;;;;;;;;;5053113;28;20191;-88
2022/03/13 18:36:16;;;;;;;8.47;4.57;;;;;;;;;;5053364;28;20211;-88
2022/03/13 18:39:20;;;;;;;6.43;4.80;;;;;;;;;;5041740;28;20204;-88
2022/03/13 18:42:24;;;;;;;9.30;4.63;;;;;;;;;;5030264;28;20183;-88
2022/03/13 18:45:28;;;;;;;8.23;5.20;;;;;;;;;;5053903;28;20666;-88
2022/03/13 18:48:32;;;;;;;6.63;4.60;;;;;;;;;;5032633;28;20180;-88
2022/03/13 18:51:37;;;;;;;7.23;5.17;;;;;;;;;;5055422;28;20180;-88
2022/03/13 18:54:41;;;;;;;8.03;5.00;;;;;;;;;;5031589;28;20203;-88
2022/03/13 18:57:46;;;;;;;8.33;5.40;;;;;;;;;;5043656;28;20180;-88
2022/03/13 19:00:50;;;;;;;7.03;5.10;;;;;;;;;;5031071;28;20184;-88
2022/03/13 19:03:54;;;;;;;10.07;6.20;;;;;;;;;;5030701;28;20627;-88
2022/03/13 19:06:58;;;;;;;8.83;6.30;;;;;;;;;;5053641;28;20682;-88
2022/03/13 19:10:05;;;;;;;11.37;5.40;;;;;;;;;;5030263;28;20176;-88
2022/03/13 19:13:11;;;;;;;7.17;5.03;;;;;;;;;;5041665;28;20180;-88
2022/03/13 19:16:19;;;;;;;5.73;4.80;;;;;;;;;;5030132;28;20216;-88
2022/03/13 19:19:24;;;;;;;7.73;5.37;;;;;;;;;;5054957;28;20224;-88
2022/03/13 19:22:31;;;;;;;7.10;4.83;;;;;;;;;;5030405;28;20176;-88
2022/03/13 19:25:35;;;;;;;6.17;4.50;;;;;;;;;;5030285;28;20212;-88
2022/03/13 19:28:39;;;;;;;8.13;4.63;;;;;;;;;;5041479;28;20176;-88
2022/03/13 19:31:43;;;;;;;7.57;5.40;;;;;;;;;;5030214;28;20623;-88
2022/03/13 19:34:48;;;;;;;7.80;5.57;;;;;;;;;;5029803;28;20184;-88
2022/03/13 19:37:53;;;;;;;7.80;4.90;;;;;;;;;;5052568;28;20200;-87
2022/03/13 19:40:57;;;;;;;8.33;5.40;;;;;;;;;;5042871;28;20176;-88
2022/03/13 19:44:03;;;;;;;6.20;4.57;;;;;;;;;;5057222;28;20177;-87
2022/03/13 19:47:10;;;;;;;7.30;4.93;;;;;;;;;;5045359;28;20553;-88
2022/03/13 19:50:15;;;;;;;6.57;5.20;;;;;;;;;;5056895;28;20616;-88
2022/03/13 19:53:20;;;;;;;7.90;5.30;;;;;;;;;;5037459;28;20539;-87
2022/03/13 19:56:25;;;;;;;7.37;5.30;;;;;;;;;;5052470;28;20227;-87
2022/03/13 19:59:29;;;;;;;13.87;5.50;;;;;;;;;;5046051;28;20207;-85
2022/03/13 20:02:35;;;;;;;10.13;6.00;;;;;;;;;;5055624;28;20187;-85
2022/03/13 20:05:39;;;;;;;10.13;6.30;;;;;;;;;;5056799;28;20223;-85
2022/03/13 20:08:44;;;;;;;7.27;5.10;;;;;;;;;;5045282;28;20184;-85
2022/03/13 20:11:48;;;;;;;9.60;5.40;;;;;;;;;;5037358;28;20200;-85
2022/03/13 20:14:53;;;;;;;6.50;5.00;;;;;;;;;;5028744;28;20207;-85
2022/03/13 20:17:57;;;;;;;10.00;5.93;;;;;;;;;;5066760;28;20191;-88
2022/03/13 20:21:01;;;;;;;10.03;6.30;;;;;;;;;;5054719;28;20183;-87
2022/03/13 20:24:05;;;;;;;8.60;5.90;;;;;;;;;;5043251;28;20183;-87
2022/03/13 20:27:10;;;;;;;7.27;5.60;;;;;;;;;;5044295;28;20187;-87
2022/03/13 20:30:15;;;;;;;9.37;6.00;;;;;;;;;;5066859;28;20184;-87
2022/03/13 20:33:19;;;;;;;8.33;5.93;;;;;;;;;;5054062;28;20669;-86
2022/03/13 20:36:25;;;;;;;9.37;6.00;;;;;;;;;;5043089;28;20211;-87
2022/03/13 20:39:29;;;;;;;7.90;6.03;;;;;;;;;;5053730;28;20219;-87
2022/03/13 20:42:33;;;;;;;11.17;6.53;;;;;;;;;;5056622;28;20180;-87
2022/03/13 20:45:37;;;;;;;9.73;6.67;;;;;;;;;;5054154;28;20219;-85
2022/03/13 20:48:41;;;;;;;8.77;6.17;;;;;;;;;;5057467;28;20634;-85
2022/03/13 20:51:48;;;;;;;10.07;6.40;;;;;;;;;;5054149;28;20199;-85
2022/03/13 20:54:52;;;;;;;10.70;6.27;;;;;;;;;;5053735;28;20192;-85
2022/03/13 20:57:57;;;;;;;9.83;6.43;;;;;;;;;;5052814;28;20187;-87
2022/03/13 21:01:01;;;;;;;10.10;6.07;;;;;;;;;;5052454;28;20191;-87
2022/03/13 21:04:06;;;;;;;12.73;6.30;;;;;;;;;;5076619;28;20171;-87
2022/03/13 21:07:12;;;;;;;9.00;6.03;;;;;;;;;;5052542;28;20191;-87
2022/03/13 21:10:17;;;;;;;8.70;5.90;;;;;;;;;;5063848;28;20188;-87
2022/03/13 21:13:24;;;;;;;9.13;6.23;;;;;;;;;;5053589;28;20183;-87
2022/03/13 21:16:28;;;;;;;8.57;5.80;;;;;;;;;;5053145;28;20223;-87
2022/03/13 21:19:32;;;;;;;7.40;6.20;;;;;;;;;;5042006;28;20215;-86
2022/03/13 21:22:39;;;;;;;10.00;6.53;;;;;;;;;;5042580;28;20184;-85
2022/03/13 21:25:43;;;;;;;9.20;6.40;;;;;;;;;;5053930;28;20219;-85
2022/03/13 21:28:47;;;;;;;10.13;6.83;;;;;;;;;;5054206;28;20523;-85
2022/03/13 21:31:52;;;;;;;8.60;6.07;;;;;;;;;;5044172;28;20203;-85
2022/03/13 21:34:56;;;;;;;10.50;6.53;;;;;;;;;;5066979;28;20203;-85
2022/03/13 21:38:00;;;;;;;8.60;5.77;;;;;;;;;;5043845;28;20191;-85
2022/03/13 21:41:06;;;;;;;10.27;6.23;;;;;;;;;;5036023;28;20678;-85
2022/03/13 21:44:10;;;;;;;10.80;6.40;;;;;;;;;;5041419;28;20192;-85
2022/03/13 21:47:15;;;;;;;9.30;6.10;;;;;;;;;;5043385;28;20551;-85
2022/03/13 21:50:19;;;;;;;10.37;6.83;;;;;;;;;;5051861;28;20585;-85
2022/03/13 21:53:23;;;;;;;8.33;5.93;;;;;;;;;;5041373;28;20597;-85
2022/03/13 21:56:27;;;;;;;9.30;6.07;;;;;;;;;;5039468;28;20231;-85
2022/03/13 21:59:31;;;;;;;8.33;5.83;;;;;;;;;;5052334;28;20234;-85
2022/03/13 22:02:36;;;;;;;9.03;6.10;;;;;;;;;;5051868;28;20535;-86
2022/03/13 22:05:40;;;;;;;8.00;5.80;;;;;;;;;;5052566;28;20223;-85
2022/03/13 22:08:45;;;;;;;12.17;5.93;;;;;;;;;;5031956;28;20548;-85
2022/03/13 22:11:49;;;;;;;15.90;6.73;;;;;;;;;;5041197;28;20188;-85
2022/03/13 22:14:55;;;;;;;12.37;6.13;;;;;;;;;;5040572;28;20518;-85
2022/03/13 22:18:01;;;;;;;10.93;6.57;;;;;;;;;;5051261;28;20192;-86
2022/03/13 22:21:05;;;;;;;9.97;6.17;;;;;;;;;;5051240;28;20630;-85
2022/03/13 22:24:09;;;;;;;10.80;6.27;;;;;;;;;;5051265;28;20538;-86
2022/03/13 22:27:14;;;;;;;10.13;5.90;;;;;;;;;;5039554;28;20593;-85
2022/03/13 22:30:21;;;;;;;11.13;6.03;;;;;;;;;;5051334;28;20184;-85
2022/03/13 22:33:25;;;;;;;7.73;5.70;;;;;;;;;;5051881;28;20538;-85
2022/03/13 22:36:30;;;;;;;8.73;5.67;;;;;;;;;;5050105;28;20645;-85
2022/03/13 22:39:35;;;;;;;10.73;5.80;;;;;;;;;;5050960;28;20622;-86
2022/03/13 22:42:39;;;;;;;10.13;6.13;;;;;;;;;;5020858;28;20539;-85
2022/03/13 22:45:43;;;;;;;9.70;5.90;;;;;;;;;;5031287;28;20215;-85
2022/03/13 22:48:47;;;;;;;9.70;6.27;;;;;;;;;;5031624;28;20594;-85
2022/03/13 22:51:52;;;;;;;10.77;6.50;;;;;;;;;;5043088;28;21067;-86
2022/03/13 22:54:57;;;;;;;8.37;6.50;;;;;;;;;;5031955;28;20602;-86
2022/03/13 22:58:01;;;;;;;9.10;6.00;;;;;;;;;;5046388;28;20957;-85
2022/03/13 23:01:07;;;;;;;10.77;6.40;;;;;;;;;;5040264;28;21147;-85
2022/03/13 23:04:11;;;;;;;9.73;6.30;;;;;;;;;;5040470;28;20554;-86
2022/03/13 23:07:15;;;;;;;9.20;6.17;;;;;;;;;;5039757;28;20594;-86